Terminal Aerodrome Forecast
Issued by NWS

Home | Current Version | Previous Version | Text Only | Print | Product List | Glossary On
Versions: 1 2 3 4 5 6 7 8 9 10 11 12 13 14 15 16 17 18 19 20 21 22 23 24 25 26 27 28 29 30 31 32 33 34 35 36 37 38 39 40 41 42 43 44
000
FTUS41 KBOX 240542
TAFACK
TAF
KACK 240542Z 2406/2506 21006KT 1/2SM FG VV001
     FM241100 28008KT 1/2SM FG BKN002
     FM241400 33009KT 2SM BR BKN003
     FM241500 34010KT 5SM BR BKN008
     FM242000 02010KT P6SM BKN050
     FM242200 03008KT 5SM BR BKN003
     FM250000 03005KT 3/4SM BR BKN002
     FM250300 VRB03KT 1/2SM FG VV001=

USA.gov is the U.S. government's official web portal to all federal, state and local government web resources and services.